Aviation Digital Data Service (ADDS)

Output produced by METARs form (1235 UTC 26 February 2017)
found at http://aviationweather.gov/adds/metars/
 
KMSS 261121Z 2612/2712 25012G22KT P6SM VCSH BKN045 
     FM261400 27012G24KT P6SM BKN045 
     FM262200 23007KT P6SM SCT045